createdAt,value
2022-11-04T00:01:23.524Z,98898.06
2022-11-04T00:03:51.251Z,98914.66
2022-11-04T00:06:19.017Z,98919.44
2022-11-04T00:08:50.816Z,98918.16
2022-11-04T00:11:36.115Z,98927.56
2022-11-04T00:14:04.364Z,98943.31
2022-11-04T00:16:49.437Z,98951.59
2022-11-04T00:19:17.311Z,98962.03
2022-11-04T00:22:02.615Z,98951.13
2022-11-04T00:24:49.497Z,98963.44
2022-11-04T00:27:36.973Z,98956.44
2022-11-04T00:30:08.015Z,98950.91
2022-11-04T00:32:53.970Z,98952.47
2022-11-04T00:35:22.684Z,98954.44
2022-11-04T00:37:50.270Z,98954.00
2022-11-04T00:40:19.736Z,98951.63
2022-11-04T00:42:48.351Z,98950.34
2022-11-04T00:45:15.931Z,98951.19
2022-11-04T00:47:43.515Z,98938.94
2022-11-04T00:50:11.128Z,98935.81
2022-11-04T00:52:38.722Z,98939.38
2022-11-04T00:55:07.441Z,98945.56
2022-11-04T00:57:39.181Z,98935.88
2022-11-04T01:00:08.192Z,98944.44
2022-11-04T01:02:35.789Z,98946.88
2022-11-04T01:05:03.414Z,98949.31
2022-11-04T01:07:31.843Z,98946.19
2022-11-04T01:09:59.391Z,98946.31
2022-11-04T01:12:26.922Z,98940.44
2022-11-04T01:14:55.935Z,98951.63
2022-11-04T01:17:23.508Z,98949.28
2022-11-04T01:19:51.164Z,98966.84
2022-11-04T01:22:18.759Z,98958.34
2022-11-04T01:24:46.299Z,98957.63
2022-11-04T01:27:13.815Z,98957.53
2022-11-04T01:29:41.530Z,98965.34
2022-11-04T01:32:10.406Z,98978.69
2022-11-04T01:34:42.388Z,98989.19
2022-11-04T01:37:11.763Z,98993.72
2022-11-04T01:39:39.293Z,98998.72
2022-11-04T01:42:06.968Z,98994.16
2022-11-04T01:44:50.074Z,98979.22
2022-11-04T01:47:20.640Z,98983.31
2022-11-04T01:49:52.487Z,98984.44
2022-11-04T01:52:26.290Z,98978.25
2022-11-04T01:54:56.808Z,98987.03
2022-11-04T01:57:30.377Z,98979.81
2022-11-04T02:00:02.407Z,98978.72
2022-11-04T02:02:31.689Z,98987.44
2022-11-04T02:04:59.339Z,98995.81
2022-11-04T02:07:27.140Z,98997.19
2022-11-04T02:09:56.097Z,98996.59
2022-11-04T02:12:41.172Z,98987.84
2022-11-04T02:15:09.443Z,98978.47
2022-11-04T02:18:00.734Z,98979.59
2022-11-04T02:20:43.365Z,98979.28
2022-11-04T02:23:42.211Z,98984.97
2022-11-04T02:26:36.309Z,98996.13
2022-11-04T02:29:27.163Z,98995.25
2022-11-04T02:32:01.637Z,98996.28
2022-11-04T02:34:41.376Z,98988.63
2022-11-04T02:37:15.607Z,98992.19
2022-11-04T02:39:52.208Z,98998.97
2022-11-04T02:42:27.200Z,98994.19
2022-11-04T02:45:09.503Z,98988.25
2022-11-04T02:47:40.945Z,99001.13
2022-11-04T02:50:13.001Z,98988.97
2022-11-04T02:52:50.292Z,99006.16
2022-11-04T02:55:24.039Z,99010.56
2022-11-04T02:57:54.928Z,99020.47
2022-11-04T03:00:23.951Z,99025.66
2022-11-04T03:02:58.360Z,99021.09
2022-11-04T03:05:29.703Z,99030.41
2022-11-04T03:08:02.076Z,99027.28
2022-11-04T03:10:36.443Z,99017.47
2022-11-04T03:13:08.605Z,99014.56
2022-11-04T03:15:40.945Z,99026.13
2022-11-04T03:18:19.294Z,99014.59
2022-11-04T03:20:49.526Z,99015.72
2022-11-04T03:23:17.936Z,99019.22
2022-11-04T03:25:47.674Z,99021.91
2022-11-04T03:28:30.814Z,99018.63
2022-11-04T03:31:05.069Z,99027.13
2022-11-04T03:33:41.339Z,99037.19
2022-11-04T03:36:09.800Z,99053.56
2022-11-04T03:38:38.837Z,99072.94
2022-11-04T03:41:14.882Z,99057.66
2022-11-04T03:43:42.936Z,99051.50
2022-11-04T03:46:12.028Z,99051.75
2022-11-04T03:48:39.849Z,99063.50
2022-11-04T03:51:07.676Z,99059.78
2022-11-04T03:53:39.353Z,99062.06
2022-11-04T03:56:30.306Z,99076.22
2022-11-04T03:59:13.236Z,99078.25
2022-11-04T04:01:50.337Z,99073.16
2022-11-04T04:04:24.201Z,99072.94
2022-11-04T04:06:55.668Z,99066.97
2022-11-04T04:09:27.607Z,99091.28
2022-11-04T04:12:02.176Z,99103.28
2022-11-04T04:14:39.992Z,99103.28
2022-11-04T04:17:17.016Z,99089.25
2022-11-04T04:19:49.358Z,99096.16
2022-11-04T04:22:21.898Z,99096.16
2022-11-04T04:25:10.366Z,99093.50
2022-11-04T04:27:40.135Z,99084.22
2022-11-04T04:30:10.249Z,99085.47
2022-11-04T04:32:44.598Z,99094.13
2022-11-04T04:35:30.446Z,99109.78
2022-11-04T04:38:21.728Z,99108.38
2022-11-04T04:41:12.740Z,99103.25
2022-11-04T04:44:01.175Z,99099.75
2022-11-04T04:46:29.299Z,99103.25
2022-11-04T04:49:05.101Z,99103.25
2022-11-04T04:51:33.313Z,99104.72
2022-11-04T04:54:00.873Z,99104.13
2022-11-04T04:56:28.430Z,99104.94
2022-11-04T04:58:56.780Z,99097.97
2022-11-04T05:01:24.707Z,99088.69
2022-11-04T05:03:52.389Z,99083.75
2022-11-04T05:06:21.684Z,99090.75
2022-11-04T05:08:49.330Z,99095.88
2022-11-04T05:11:17.182Z,99090.09
2022-11-04T05:13:44.823Z,99088.69
2022-11-04T05:16:12.768Z,99096.31
2022-11-04T05:18:40.429Z,99091.63
2022-11-04T05:21:09.795Z,99090.81
2022-11-04T05:23:38.755Z,99078.25
2022-11-04T05:26:06.956Z,99080.72
2022-11-04T05:28:34.655Z,99091.84
2022-11-04T05:31:04.253Z,99090.16
2022-11-04T05:33:32.248Z,99097.19
2022-11-04T05:36:06.856Z,99101.28
2022-11-04T05:38:34.783Z,99103.31
2022-11-04T05:41:07.841Z,99097.56
2022-11-04T05:43:35.980Z,99088.31
2022-11-04T05:46:03.952Z,99086.22
2022-11-04T05:48:35.107Z,99081.91
2022-11-04T05:51:05.588Z,99080.09
2022-11-04T05:53:33.236Z,99083.16
2022-11-04T05:56:00.976Z,99089.94
2022-11-04T05:58:29.866Z,99088.91
2022-11-04T06:01:12.336Z,99096.13
2022-11-04T06:03:40.055Z,99089.34
2022-11-04T06:06:07.654Z,99087.25
2022-11-04T06:08:39.916Z,99083.56
2022-11-04T06:11:10.239Z,99088.06
2022-11-04T06:13:39.163Z,99082.72
2022-11-04T06:16:07.490Z,99089.66
2022-11-04T06:18:35.274Z,99090.25
2022-11-04T06:21:11.913Z,99091.28
2022-11-04T06:23:39.609Z,99085.13
2022-11-04T06:26:08.028Z,99089.03
2022-11-04T06:28:36.364Z,99093.78
2022-11-04T06:31:08.678Z,99094.47
2022-11-04T06:33:41.031Z,99100.19
2022-11-04T06:36:11.226Z,99098.94
2022-11-04T06:38:39.078Z,99106.34
2022-11-04T06:41:16.604Z,99109.25
2022-11-04T06:43:44.386Z,99113.59
2022-11-04T06:46:30.759Z,99137.88
2022-11-04T06:48:58.448Z,99141.97
2022-11-04T06:51:26.638Z,99137.66
2022-11-04T06:53:54.365Z,99130.00
2022-11-04T06:56:22.137Z,99131.81
2022-11-04T06:58:50.189Z,99133.44
2022-11-04T07:01:21.728Z,99141.06
2022-11-04T07:03:51.801Z,99140.81
2022-11-04T07:06:20.152Z,99142.25
2022-11-04T07:08:48.236Z,99139.53
2022-11-04T07:11:17.099Z,99144.25
2022-11-04T07:13:45.148Z,99147.34
2022-11-04T07:16:12.819Z,99136.19
2022-11-04T07:18:42.721Z,99140.84
2022-11-04T07:21:12.888Z,99141.66
2022-11-04T07:23:40.629Z,99147.38
2022-11-04T07:26:09.855Z,99151.72
2022-11-04T07:28:40.153Z,99156.59
2022-11-04T07:31:09.848Z,99161.28
2022-11-04T07:33:37.494Z,99163.38
2022-11-04T07:36:06.383Z,99168.25
2022-11-04T07:38:35.377Z,99165.53
2022-11-04T07:41:05.217Z,99168.56
2022-11-04T07:43:32.933Z,99171.38
2022-11-04T07:46:01.687Z,99171.00
2022-11-04T07:48:29.295Z,99171.50
2022-11-04T07:50:59.855Z,99171.50
2022-11-04T07:53:28.324Z,99186.72
2022-11-04T07:55:57.456Z,99184.88
2022-11-04T07:58:26.185Z,99184.41
2022-11-04T08:01:00.256Z,99175.44
2022-11-04T08:03:28.036Z,99177.69
2022-11-04T08:05:57.363Z,99185.97
2022-11-04T08:08:25.126Z,99178.66
2022-11-04T08:10:56.620Z,99180.38
2022-11-04T08:13:29.361Z,99184.78
2022-11-04T08:15:57.326Z,99189.66
2022-11-04T08:18:25.705Z,99187.63
2022-11-04T08:20:55.742Z,99187.19
2022-11-04T08:23:23.533Z,99186.22
2022-11-04T08:25:51.305Z,99183.81
2022-11-04T08:28:18.922Z,99182.13
2022-11-04T08:30:55.754Z,99175.34
2022-11-04T08:33:24.423Z,99176.06
2022-11-04T08:35:52.245Z,99176.75
2022-11-04T08:38:20.046Z,99170.09
2022-11-04T08:40:47.911Z,99169.59
2022-11-04T08:43:15.547Z,99170.63
2022-11-04T08:45:45.699Z,99165.03
2022-11-04T08:48:16.460Z,99161.63
2022-11-04T08:50:44.768Z,99170.34
2022-11-04T08:53:12.659Z,99162.66
2022-11-04T08:55:40.396Z,99159.69
2022-11-04T08:58:08.285Z,99164.47
2022-11-04T09:00:36.803Z,99167.81
2022-11-04T09:03:04.915Z,99162.38
2022-11-04T09:05:34.011Z,99162.59
2022-11-04T09:08:02.047Z,99163.50
2022-11-04T09:10:29.712Z,99173.63
2022-11-04T09:12:57.348Z,99176.00
2022-11-04T09:15:24.950Z,99177.34
2022-11-04T09:17:52.578Z,99185.81
2022-11-04T09:20:20.111Z,99186.75
2022-11-04T09:22:51.190Z,99185.06
2022-11-04T09:25:18.781Z,99185.63
2022-11-04T09:27:46.446Z,99191.34
2022-11-04T09:30:14.627Z,99197.34
2022-11-04T09:32:42.501Z,99192.66
2022-11-04T09:35:11.686Z,99186.84
2022-11-04T09:37:39.436Z,99182.84
2022-11-04T09:40:13.428Z,99191.69
2022-11-04T09:42:53.341Z,99191.38
2022-11-04T09:45:27.369Z,99173.34
2022-11-04T09:48:01.636Z,99188.44
2022-11-04T09:50:46.127Z,99183.75
2022-11-04T09:53:18.192Z,99189.47
2022-11-04T09:55:55.436Z,99189.47
2022-11-04T09:58:23.621Z,99200.47
2022-11-04T10:01:00.366Z,99206.00
2022-11-04T10:03:44.359Z,99197.44
2022-11-04T10:06:42.218Z,99204.47
2022-11-04T10:09:23.099Z,99199.81
2022-11-04T10:12:05.624Z,99204.63
2022-11-04T10:14:50.330Z,99203.94
2022-11-04T10:17:37.388Z,99203.22
2022-11-04T10:20:20.976Z,99197.47
2022-11-04T10:22:59.031Z,99197.88
2022-11-04T10:25:35.755Z,99188.25
2022-11-04T10:28:06.431Z,99187.81
2022-11-04T10:30:35.689Z,99178.56
2022-11-04T10:33:12.374Z,99181.34
2022-11-04T10:35:45.649Z,99172.53
2022-11-04T10:38:29.396Z,99165.69
2022-11-04T10:40:59.637Z,99165.47
2022-11-04T10:43:35.130Z,99161.78
2022-11-04T10:46:16.531Z,99156.53
2022-11-04T10:48:51.443Z,99148.31
2022-11-04T10:51:22.058Z,99143.47
2022-11-04T10:53:54.838Z,99145.16
2022-11-04T10:56:33.224Z,99134.84
2022-11-04T10:59:20.438Z,99138.13
2022-11-04T11:01:52.983Z,99144.03
2022-11-04T11:04:30.700Z,99146.66
2022-11-04T11:07:00.267Z,99141.06
2022-11-04T11:09:30.541Z,99133.34
2022-11-04T11:12:00.980Z,99137.34
2022-11-04T11:14:37.942Z,99135.28
2022-11-04T11:17:24.621Z,99141.19
2022-11-04T11:19:56.901Z,99136.38
2022-11-04T11:22:35.254Z,99132.44
2022-11-04T11:25:30.939Z,99136.25
2022-11-04T11:28:01.081Z,99131.41
2022-11-04T11:30:33.069Z,99127.19
2022-11-04T11:33:04.768Z,99132.16
2022-11-04T11:35:41.335Z,99135.56
2022-11-04T11:38:19.469Z,99136.84
2022-11-04T11:41:22.746Z,99140.50
2022-11-04T11:43:43.454Z,99136.75
2022-11-04T11:46:13.825Z,99139.03
2022-11-04T11:48:45.420Z,99124.97
2022-11-04T11:51:14.335Z,99123.94
2022-11-04T11:53:59.374Z,99133.75
2022-11-04T11:56:45.813Z,99125.56
2022-11-04T12:02:29.702Z,99127.09
2022-11-04T12:10:51.703Z,99130.44
2022-11-04T12:13:26.352Z,99123.84
2022-11-04T12:16:10.980Z,99115.72
2022-11-04T12:18:58.879Z,99111.06
2022-11-04T12:21:33.414Z,99112.28
2022-11-04T12:24:08.169Z,99113.66
2022-11-04T12:26:43.708Z,99113.41
2022-11-04T12:29:28.626Z,99108.63
2022-11-04T12:32:06.426Z,99107.63
2022-11-04T12:34:47.756Z,99108.44
2022-11-04T12:37:28.370Z,99111.22
2022-11-04T12:40:12.714Z,99112.59
2022-11-04T12:43:00.323Z,99108.69
2022-11-04T12:45:40.164Z,99114.09
2022-11-04T12:48:12.570Z,99107.81
2022-11-04T12:50:57.606Z,99120.13
2022-11-04T12:53:42.860Z,99125.34
2022-11-04T12:56:11.964Z,99120.75
2022-11-04T12:58:56.867Z,99116.50
2022-11-04T13:01:30.508Z,99122.09
2022-11-04T13:04:05.530Z,99118.06
2022-11-04T13:06:40.798Z,99124.34
2022-11-04T13:09:16.000Z,99122.50
2022-11-04T13:11:52.153Z,99124.00
2022-11-04T13:14:29.334Z,99126.34
2022-11-04T13:17:00.233Z,99131.31
2022-11-04T13:19:35.630Z,99132.53
2022-11-04T13:22:08.558Z,99136.63
2022-11-04T13:24:39.884Z,99145.09
2022-11-04T13:27:18.975Z,99146.84
2022-11-04T13:29:48.454Z,99145.84
2022-11-04T13:32:25.301Z,99147.88
2022-11-04T13:34:59.796Z,99148.41
2022-11-04T13:37:35.163Z,99153.00
2022-11-04T13:40:13.059Z,99156.56
2022-11-04T13:43:18.931Z,99161.50
2022-11-04T13:45:50.378Z,99159.53
2022-11-04T13:48:23.142Z,99168.03
2022-11-04T13:50:58.260Z,99171.00
2022-11-04T13:53:43.376Z,99175.44
2022-11-04T13:56:32.136Z,99172.75
2022-11-04T13:59:04.649Z,99174.63
2022-11-04T14:01:34.105Z,99185.19
2022-11-04T14:04:27.259Z,99184.84
2022-11-04T14:06:58.388Z,99191.88
2022-11-04T14:09:51.754Z,99189.75
2022-11-04T14:12:31.543Z,99198.91
2022-11-04T14:15:20.161Z,99208.38
2022-11-04T14:18:07.916Z,99210.22
2022-11-04T14:21:08.940Z,99209.97
2022-11-04T14:23:38.041Z,99210.97
2022-11-04T14:26:09.704Z,99214.53
2022-11-04T14:28:38.668Z,99221.47
2022-11-04T14:31:14.033Z,99224.97
2022-11-04T14:33:53.801Z,99229.38
2022-11-04T14:36:28.484Z,99228.28
2022-11-04T14:38:59.550Z,99227.81
2022-11-04T14:41:54.054Z,99231.22
2022-11-04T14:44:29.775Z,99235.59
2022-11-04T14:47:00.844Z,99235.59
2022-11-04T14:49:43.551Z,99233.94
2022-11-04T14:52:25.421Z,99229.81
2022-11-04T14:54:58.101Z,99232.78
2022-11-04T14:57:31.809Z,99225.94
2022-11-04T14:59:59.422Z,99229.91
2022-11-04T15:02:31.339Z,99232.09
2022-11-04T15:05:00.901Z,99234.47
2022-11-04T15:07:40.961Z,99237.69
2022-11-04T15:10:22.601Z,99245.19
2022-11-04T15:12:52.098Z,99244.47
2022-11-04T15:15:30.196Z,99248.97
2022-11-04T15:18:01.421Z,99253.88
2022-11-04T15:20:31.507Z,99262.94
2022-11-04T15:23:01.409Z,99265.34
2022-11-04T15:25:29.140Z,99269.59
2022-11-04T15:27:58.413Z,99269.69
2022-11-04T15:30:28.805Z,99272.75
2022-11-04T15:33:04.074Z,99274.81
2022-11-04T15:35:43.609Z,99278.03
2022-11-04T15:38:14.203Z,99278.50
2022-11-04T15:40:44.389Z,99269.78
2022-11-04T15:43:15.925Z,99279.25
2022-11-04T15:45:51.514Z,99281.28
2022-11-04T15:48:27.564Z,99290.16
2022-11-04T15:51:19.259Z,99291.50
2022-11-04T15:53:54.559Z,99299.09
2022-11-04T15:56:25.852Z,99308.44
2022-11-04T15:58:56.581Z,99308.03
2022-11-04T16:01:29.238Z,99300.28
2022-11-04T16:03:59.791Z,99305.44
2022-11-04T16:06:36.257Z,99312.28
2022-11-04T16:09:09.044Z,99315.97
2022-11-04T16:11:39.826Z,99327.63
2022-11-04T16:14:24.815Z,99334.88
2022-11-04T16:16:54.078Z,99333.00
2022-11-04T16:19:23.932Z,99337.47
2022-11-04T16:22:00.739Z,99331.09
2022-11-04T16:24:31.482Z,99337.09
2022-11-04T16:26:59.572Z,99337.47
2022-11-04T16:29:32.109Z,99336.50
2022-11-04T16:32:08.605Z,99344.13
2022-11-04T16:34:36.686Z,99339.53
2022-11-04T16:37:04.291Z,99338.50
2022-11-04T16:39:32.599Z,99352.97
2022-11-04T16:42:00.391Z,99355.88
2022-11-04T16:44:29.735Z,99357.31
2022-11-04T16:46:58.115Z,99356.03
2022-11-04T16:49:26.183Z,99366.78
2022-11-04T16:51:56.261Z,99371.50
2022-11-04T16:54:24.702Z,99365.50
2022-11-04T16:56:52.548Z,99372.97
2022-11-04T16:59:20.161Z,99369.84
2022-11-04T17:01:53.335Z,99368.81
2022-11-04T17:04:21.033Z,99371.88
2022-11-04T17:06:49.002Z,99374.78
2022-11-04T17:09:23.351Z,99382.03
2022-11-04T17:11:51.013Z,99379.72
2022-11-04T17:14:18.603Z,99384.25
2022-11-04T17:16:46.191Z,99383.66
2022-11-04T17:19:17.391Z,99386.13
2022-11-04T17:21:46.356Z,99387.31
2022-11-04T17:24:14.422Z,99393.81
2022-11-04T17:26:42.101Z,99394.06
2022-11-04T17:29:15.917Z,99407.81
2022-11-04T17:31:44.884Z,99407.03
2022-11-04T17:34:12.991Z,99410.44
2022-11-04T17:36:42.178Z,99404.47
2022-11-04T17:39:11.014Z,99416.91
2022-11-04T17:41:56.412Z,99421.31
2022-11-04T17:44:24.024Z,99427.88
2022-11-04T17:46:51.650Z,99425.19
2022-11-04T17:49:21.383Z,99426.44
2022-11-04T17:51:53.643Z,99433.44
2022-11-04T17:54:22.193Z,99433.03
2022-11-04T17:56:50.411Z,99437.44
2022-11-04T17:59:18.486Z,99443.06
2022-11-04T18:01:47.121Z,99446.66
2022-11-04T18:04:16.599Z,99457.47
2022-11-04T18:06:45.482Z,99463.25
2022-11-04T18:09:15.955Z,99450.25
2022-11-04T18:12:02.548Z,99454.22
2022-11-04T18:14:30.200Z,99458.06
2022-11-04T18:16:58.408Z,99459.34
2022-11-04T18:19:27.934Z,99455.69
2022-11-04T18:21:55.809Z,99459.28
2022-11-04T18:24:25.053Z,99460.09
2022-11-04T18:26:52.995Z,99468.16
2022-11-04T18:29:21.649Z,99461.97
2022-11-04T18:31:49.851Z,99466.97
2022-11-04T18:34:19.993Z,99472.16
2022-11-04T18:36:48.798Z,99492.56
2022-11-04T18:39:18.440Z,99490.91
2022-11-04T18:41:47.611Z,99492.13
2022-11-04T18:44:17.220Z,99487.97
2022-11-04T18:46:45.065Z,99490.44
2022-11-04T18:49:16.459Z,99490.66
2022-11-04T18:51:44.562Z,99495.63
2022-11-04T18:54:13.371Z,99495.66
2022-11-04T18:56:41.170Z,99499.38
2022-11-04T18:59:11.328Z,99497.72
2022-11-04T19:01:39.315Z,99502.25
2022-11-04T19:04:07.137Z,99508.22
2022-11-04T19:06:40.071Z,99507.00
2022-11-04T19:09:32.484Z,99513.19
2022-11-04T19:12:11.524Z,99516.31
2022-11-04T19:14:40.895Z,99520.41
2022-11-04T19:17:09.646Z,99528.91
2022-11-04T19:19:37.457Z,99546.19
2022-11-04T19:22:05.077Z,99548.28
2022-11-04T19:24:32.723Z,99540.66
2022-11-04T19:27:00.361Z,99548.28
2022-11-04T19:29:29.019Z,99549.28
2022-11-04T19:31:58.281Z,99543.13
2022-11-04T19:34:25.975Z,99552.19
2022-11-04T19:36:53.686Z,99547.25
2022-11-04T19:39:21.425Z,99564.56
2022-11-04T19:42:06.995Z,99561.88
2022-11-04T19:44:34.536Z,99564.34
2022-11-04T19:47:03.515Z,99563.34
2022-11-04T19:49:31.620Z,99565.41
2022-11-04T19:51:59.391Z,99567.69
2022-11-04T19:54:28.156Z,99575.72
2022-11-04T19:56:55.903Z,99571.59
2022-11-04T19:59:23.593Z,99574.88
2022-11-04T20:01:51.625Z,99579.44
2022-11-04T20:04:20.701Z,99573.06
2022-11-04T20:06:48.312Z,99589.53
2022-11-04T20:09:16.029Z,99591.41
2022-11-04T20:11:57.616Z,99595.28
2022-11-04T20:14:25.771Z,99601.47
2022-11-04T20:16:54.023Z,99603.75
2022-11-04T20:19:23.521Z,99615.94
2022-11-04T20:21:51.437Z,99620.66
2022-11-04T20:24:20.433Z,99615.72
2022-11-04T20:26:48.186Z,99619.22
2022-11-04T20:29:16.937Z,99615.50
2022-11-04T20:31:45.247Z,99621.28
2022-11-04T20:34:14.380Z,99631.81
2022-11-04T20:36:43.772Z,99627.88
2022-11-04T20:39:14.253Z,99637.19
2022-11-04T20:41:42.358Z,99642.75
2022-11-04T20:44:10.773Z,99640.47
2022-11-04T20:46:38.572Z,99646.88
2022-11-04T20:49:06.442Z,99638.84
2022-11-04T20:51:37.179Z,99641.91
2022-11-04T20:54:07.834Z,99640.06
2022-11-04T20:56:38.818Z,99650.34
2022-11-04T20:59:07.226Z,99659.44
2022-11-04T21:01:37.156Z,99672.66
2022-11-04T21:04:06.639Z,99661.72
2022-11-04T21:06:37.518Z,99677.00
2022-11-04T21:09:08.202Z,99677.19
2022-11-04T21:11:36.568Z,99673.47
2022-11-04T21:14:06.547Z,99665.22
2022-11-04T21:16:35.490Z,99679.25
2022-11-04T21:19:05.093Z,99690.38
2022-11-04T21:21:33.316Z,99679.66
2022-11-04T21:24:03.624Z,99694.50
2022-11-04T21:26:35.056Z,99688.50
2022-11-04T21:29:06.874Z,99693.47
2022-11-04T21:31:37.262Z,99694.91
2022-11-04T21:34:05.989Z,99698.81
2022-11-04T21:36:34.042Z,99698.81
2022-11-04T21:39:02.103Z,99697.56
2022-11-04T21:41:36.980Z,99690.34
2022-11-04T21:44:08.160Z,99695.28
2022-11-04T21:46:36.443Z,99697.19
2022-11-04T21:49:04.449Z,99702.53
2022-11-04T21:51:34.362Z,99711.19
2022-11-04T21:54:05.722Z,99707.91
2022-11-04T21:56:35.971Z,99704.56
2022-11-04T21:59:06.643Z,99703.56
2022-11-04T22:01:34.803Z,99711.63
2022-11-04T22:04:03.125Z,99712.44
2022-11-04T22:06:35.113Z,99719.22
2022-11-04T22:09:05.927Z,99730.41
2022-11-04T22:11:38.889Z,99728.34
2022-11-04T22:14:08.365Z,99732.47
2022-11-04T22:16:38.508Z,99733.06
2022-11-04T22:19:08.546Z,99730.00
2022-11-04T22:21:40.040Z,99732.88
2022-11-04T22:24:09.628Z,99739.47
2022-11-04T22:26:38.722Z,99738.66
2022-11-04T22:29:06.444Z,99744.41
2022-11-04T22:31:37.585Z,99744.63
2022-11-04T22:34:06.368Z,99750.00
2022-11-04T22:36:34.927Z,99744.84
2022-11-04T22:39:03.324Z,99751.88
2022-11-04T22:41:32.600Z,99755.56
2022-11-04T22:44:01.906Z,99752.66
2022-11-04T22:46:31.612Z,99757.38
2022-11-04T22:49:00.459Z,99755.78
2022-11-04T22:51:29.572Z,99754.69
2022-11-04T22:54:02.944Z,99757.38
2022-11-04T22:56:34.215Z,99763.81
2022-11-04T22:59:03.291Z,99770.34
2022-11-04T23:01:33.172Z,99764.78
2022-11-04T23:04:01.030Z,99775.19
2022-11-04T23:06:28.790Z,99773.00
2022-11-04T23:09:00.033Z,99770.50
2022-11-04T23:11:47.582Z,99769.41
2022-11-04T23:14:35.943Z,99769.38
2022-11-04T23:17:28.768Z,99770.66
2022-11-04T23:19:56.447Z,99772.72
2022-11-04T23:22:41.651Z,99775.59
2022-11-04T23:25:10.341Z,99774.56
2022-11-04T23:27:59.324Z,99783.16
2022-11-04T23:30:33.645Z,99780.44
2022-11-04T23:33:03.080Z,99778.44
2022-11-04T23:35:51.374Z,99790.78
2022-11-04T23:38:19.650Z,99794.72
2022-11-04T23:41:08.695Z,99793.69
2022-11-04T23:43:35.960Z,99798.78
2022-11-04T23:46:22.273Z,99800.44
2022-11-04T23:49:09.164Z,99799.50
2022-11-04T23:51:54.751Z,99803.22
2022-11-04T23:54:40.161Z,99809.75
2022-11-04T23:57:30.900Z,99814.13
